createdAt,value
2022-08-04T00:00:41.159Z,54.40
2022-08-04T00:05:41.118Z,54.80
2022-08-04T00:10:41.050Z,55.12
2022-08-04T00:15:40.990Z,55.32
2022-08-04T00:20:40.951Z,55.72
2022-08-04T00:25:40.864Z,55.94
2022-08-04T00:30:40.794Z,56.24
2022-08-04T00:35:40.753Z,56.64
2022-08-04T00:40:40.666Z,56.77
2022-08-04T00:46:15.853Z,57.17
2022-08-04T00:50:41.548Z,57.59
2022-08-04T00:55:40.457Z,57.69
2022-08-04T01:00:40.418Z,58.11
2022-08-04T01:05:40.363Z,58.22
2022-08-04T01:10:40.307Z,58.51
2022-08-04T01:15:59.678Z,58.71
2022-08-04T01:20:41.154Z,59.23
2022-08-04T01:25:40.096Z,59.44
2022-08-04T01:30:40.090Z,59.64
2022-08-04T01:35:46.492Z,59.83
2022-08-04T01:40:40.903Z,60.24
2022-08-04T01:45:39.838Z,60.33
2022-08-04T01:50:39.789Z,60.46
2022-08-04T01:55:51.856Z,60.46
2022-08-04T02:00:40.642Z,60.66
2022-08-04T02:06:03.786Z,61.09
2022-08-04T02:10:40.526Z,61.09
2022-08-04T02:15:39.517Z,61.49
2022-08-04T02:20:39.408Z,61.61
2022-08-04T02:25:39.328Z,62.01
2022-08-04T02:30:39.291Z,62.31
2022-08-04T02:35:39.207Z,62.41
2022-08-04T02:40:39.185Z,62.41
2022-08-04T02:45:39.122Z,62.51
2022-08-04T02:50:39.057Z,62.41
2022-08-04T02:55:38.972Z,62.31
2022-08-04T03:00:39.922Z,62.15
2022-08-04T03:05:50.020Z,62.54
2022-08-04T03:10:39.856Z,62.64
2022-08-04T03:15:38.727Z,63.04
2022-08-04T03:20:38.678Z,63.27
2022-08-04T03:25:56.676Z,63.24
2022-08-04T03:30:39.544Z,63.47
2022-08-04T03:35:38.478Z,64.07
2022-08-04T03:40:38.424Z,64.50
2022-08-04T03:45:38.343Z,64.80
2022-08-04T03:50:41.285Z,65.10
2022-08-04T03:55:38.227Z,65.20
2022-08-04T04:00:38.181Z,65.60
2022-08-04T04:05:56.023Z,65.70
2022-08-04T04:10:39.106Z,66.09
2022-08-04T04:15:38.015Z,66.30
2022-08-04T04:20:37.936Z,65.83
2022-08-04T04:25:37.863Z,66.23
2022-08-04T04:30:37.811Z,67.03
2022-08-04T04:35:37.741Z,67.72
2022-08-04T04:40:37.654Z,68.13
2022-08-04T04:45:37.604Z,68.13
2022-08-04T04:50:37.544Z,67.93
2022-08-04T04:55:37.454Z,68.13
2022-08-04T05:00:37.520Z,68.19
2022-08-04T05:05:37.454Z,68.49
2022-08-04T05:10:37.296Z,68.29
2022-08-04T05:15:37.240Z,68.10
2022-08-04T05:20:37.176Z,68.06
2022-08-04T05:25:37.129Z,67.66
2022-08-04T05:30:37.062Z,67.33
2022-08-04T05:35:47.858Z,66.93
2022-08-04T05:40:37.904Z,66.60
2022-08-04T05:45:39.162Z,66.37
2022-08-04T05:50:36.875Z,66.07
2022-08-04T05:55:57.230Z,65.44
2022-08-04T06:00:41.224Z,65.01
2022-08-04T06:05:36.600Z,64.39
2022-08-04T06:10:36.543Z,63.95
2022-08-04T06:15:36.530Z,63.23
2022-08-04T06:20:37.480Z,62.30
2022-08-04T06:25:36.360Z,61.85
2022-08-04T06:30:36.302Z,60.93
2022-08-04T06:35:36.234Z,59.51
2022-08-04T06:40:36.186Z,58.75
2022-08-04T06:45:36.166Z,58.23
2022-08-04T06:51:25.816Z,56.72
2022-08-04T06:55:36.981Z,56.27
2022-08-04T07:00:35.921Z,54.96
2022-08-04T07:05:35.885Z,54.63
2022-08-04T07:10:35.798Z,53.30
2022-08-04T07:15:35.763Z,53.27
2022-08-04T07:20:36.986Z,51.07
2022-08-04T07:25:59.999Z,50.73
2022-08-04T07:30:36.625Z,50.81
2022-08-04T07:36:05.297Z,48.61
2022-08-04T07:40:36.494Z,50.26
2022-08-04T07:45:35.386Z,48.15
2022-08-04T07:50:35.326Z,48.23
2022-08-04T07:55:35.265Z,46.71
2022-08-04T08:00:35.177Z,45.80
2022-08-04T08:05:35.131Z,45.17
2022-08-04T08:10:36.089Z,44.73
2022-08-04T08:15:35.023Z,43.84
2022-08-04T08:20:35.262Z,43.49
2022-08-04T08:25:34.928Z,41.80
2022-08-04T08:30:34.891Z,43.22
2022-08-04T08:35:34.787Z,41.03
2022-08-04T08:40:40.640Z,40.60
2022-08-04T08:45:35.667Z,38.54
2022-08-04T08:50:34.611Z,39.78
2022-08-04T08:55:34.529Z,38.87
2022-08-04T09:00:34.468Z,38.07
2022-08-04T09:05:34.421Z,38.15
2022-08-04T09:10:34.365Z,36.18
2022-08-04T09:15:34.305Z,35.77
2022-08-04T09:20:34.257Z,35.75
2022-08-04T09:25:34.184Z,34.67
2022-08-04T09:30:34.124Z,36.98
2022-08-04T09:35:34.068Z,34.23
2022-08-04T09:40:52.553Z,34.97
2022-08-04T09:45:42.213Z,33.70
2022-08-04T09:50:34.895Z,32.23
2022-08-04T09:55:33.855Z,32.62
2022-08-04T10:00:41.035Z,32.14
2022-08-04T10:05:34.761Z,32.89
2022-08-04T10:10:33.697Z,32.79
2022-08-04T10:15:33.675Z,32.99
2022-08-04T10:20:44.474Z,32.29
2022-08-04T10:26:02.540Z,32.49
2022-08-04T10:30:34.478Z,32.20
2022-08-04T10:35:33.413Z,32.47
2022-08-04T10:40:33.358Z,32.17
2022-08-04T10:45:33.298Z,31.11
2022-08-04T10:50:33.248Z,31.09
2022-08-04T10:56:06.660Z,31.00
2022-08-04T11:00:34.115Z,31.95
2022-08-04T11:05:33.071Z,29.81
2022-08-04T11:10:34.040Z,30.47
2022-08-04T11:15:32.979Z,28.82
2022-08-04T11:20:35.671Z,29.69
2022-08-04T11:25:32.872Z,28.81
2022-08-04T11:30:32.810Z,29.58
2022-08-04T11:35:32.742Z,29.75
2022-08-04T11:40:32.714Z,28.71
2022-08-04T11:45:32.645Z,28.52
2022-08-04T11:50:32.585Z,28.81
2022-08-04T11:55:32.533Z,29.38
2022-08-04T12:00:33.459Z,29.00
2022-08-04T12:05:36.907Z,29.02
2022-08-04T12:10:41.249Z,28.34
2022-08-04T12:15:33.304Z,28.72
2022-08-04T12:20:40.861Z,27.59
2022-08-04T12:25:33.196Z,29.41
2022-08-04T12:30:58.060Z,29.41
2022-08-04T12:35:33.076Z,29.32
2022-08-04T12:40:32.107Z,28.93
2022-08-04T12:45:31.971Z,28.64
2022-08-04T12:50:31.911Z,29.80
2022-08-04T12:55:31.961Z,29.13
2022-08-04T13:00:35.387Z,29.51
2022-08-04T13:05:32.761Z,29.32
2022-08-04T13:10:31.691Z,29.61
2022-08-04T13:15:31.650Z,29.03
2022-08-04T13:20:31.588Z,27.22
2022-08-04T13:26:43.023Z,28.85
2022-08-04T13:30:32.469Z,28.67
2022-08-04T13:35:55.398Z,28.00
2022-08-04T13:40:32.368Z,28.09
2022-08-04T13:45:33.871Z,28.58
2022-08-04T13:50:31.295Z,29.15
2022-08-04T13:55:31.189Z,27.81
2022-08-04T14:00:31.166Z,27.81
2022-08-04T14:05:35.317Z,28.19
2022-08-04T14:10:32.029Z,27.91
2022-08-04T14:16:03.041Z,27.71
2022-08-04T14:20:31.932Z,28.96
2022-08-04T14:25:35.580Z,27.71
2022-08-04T14:30:31.796Z,27.71
2022-08-04T14:35:49.791Z,28.20
2022-08-04T14:40:31.787Z,27.92
2022-08-04T14:45:30.660Z,27.35
2022-08-04T14:50:30.558Z,29.86
2022-08-04T14:55:30.518Z,28.12
2022-08-04T15:00:30.451Z,28.23
2022-08-04T15:05:55.290Z,28.91
2022-08-04T15:10:31.336Z,28.92
2022-08-04T15:15:37.160Z,30.94
2022-08-04T15:20:31.218Z,29.32
2022-08-04T15:25:30.168Z,30.67
2022-08-04T15:30:30.110Z,29.82
2022-08-04T15:35:35.086Z,29.72
2022-08-04T15:40:33.645Z,29.06
2022-08-04T15:46:37.122Z,29.66
2022-08-04T15:50:30.875Z,29.96
2022-08-04T15:55:32.348Z,30.54
2022-08-04T16:00:29.756Z,30.65
2022-08-04T16:05:29.756Z,30.38
2022-08-04T16:10:29.645Z,30.96
2022-08-04T16:15:29.602Z,30.88
2022-08-04T16:20:29.534Z,30.69
2022-08-04T16:25:29.523Z,31.28
2022-08-04T16:30:30.418Z,31.29
2022-08-04T16:35:29.359Z,31.02
2022-08-04T16:40:34.639Z,30.65
2022-08-04T16:45:30.242Z,32.70
2022-08-04T16:50:29.182Z,33.47
2022-08-04T16:55:29.139Z,33.29
2022-08-04T17:00:29.068Z,33.90
2022-08-04T17:05:39.743Z,32.75
2022-08-04T17:10:29.960Z,33.33
2022-08-04T17:15:28.913Z,33.15
2022-08-04T17:21:01.459Z,32.68
2022-08-04T17:25:51.564Z,33.28
2022-08-04T17:30:29.744Z,34.16
2022-08-04T17:35:38.496Z,35.15
2022-08-04T17:40:29.600Z,34.00
2022-08-04T17:50:29.511Z,35.78
2022-08-04T17:55:28.411Z,36.19
2022-08-04T18:00:33.254Z,35.61
2022-08-04T18:05:54.055Z,35.82
2022-08-04T18:10:35.146Z,36.13
2022-08-04T18:15:40.483Z,36.43
2022-08-04T18:20:29.121Z,38.98
2022-08-04T18:25:50.406Z,39.10
2022-08-04T18:30:36.470Z,40.00
2022-08-04T18:36:31.208Z,41.76
2022-08-04T18:40:35.567Z,40.41
2022-08-04T18:45:33.891Z,40.62
2022-08-04T18:50:58.642Z,40.25
2022-08-04T18:55:56.489Z,40.45
2022-08-04T19:00:28.690Z,40.47
2022-08-04T19:05:38.031Z,39.80
2022-08-04T19:10:28.533Z,39.51
2022-08-04T19:15:34.520Z,39.62
2022-08-04T19:20:28.410Z,39.72
2022-08-04T19:30:28.257Z,39.64
2022-08-04T19:35:27.238Z,39.94
2022-08-04T19:40:33.814Z,39.95
2022-08-04T19:45:44.634Z,40.35
2022-08-04T19:50:28.023Z,40.66
2022-08-04T19:55:36.804Z,40.47
2022-08-04T20:00:33.692Z,40.29
2022-08-04T20:05:52.809Z,40.98
2022-08-04T20:10:27.780Z,40.70
2022-08-04T20:15:26.732Z,40.80
2022-08-04T20:20:26.736Z,41.49
2022-08-04T20:25:37.282Z,41.51
2022-08-04T20:30:28.344Z,42.40
2022-08-04T20:35:26.932Z,42.52
2022-08-04T20:40:26.482Z,43.30
2022-08-04T20:45:55.775Z,43.10
2022-08-04T20:55:29.703Z,44.01
2022-08-04T21:00:30.271Z,43.71
2022-08-04T21:05:26.580Z,44.03
2022-08-04T21:10:26.303Z,44.82
2022-08-04T21:15:50.798Z,45.21
2022-08-04T21:20:27.844Z,45.24
2022-08-04T21:25:25.904Z,45.63
2022-08-04T21:30:26.289Z,45.73
2022-08-04T21:35:36.712Z,45.95
2022-08-04T21:40:32.821Z,45.85
2022-08-04T21:45:26.662Z,46.54
2022-08-04T21:50:30.814Z,46.17
2022-08-04T21:55:25.468Z,46.47
2022-08-04T22:00:26.442Z,45.70
2022-08-04T22:05:25.350Z,45.70
2022-08-04T22:10:32.946Z,45.82
2022-08-04T22:16:05.036Z,46.11
2022-08-04T22:20:27.673Z,46.41
2022-08-04T22:25:25.177Z,46.44
2022-08-04T22:30:29.148Z,46.93
2022-08-04T22:35:42.986Z,47.42
2022-08-04T22:40:26.292Z,47.74
2022-08-04T22:45:28.973Z,48.63
2022-08-04T22:50:27.549Z,49.02
2022-08-04T22:55:25.454Z,49.42
2022-08-04T23:00:28.738Z,49.82
2022-08-04T23:05:24.705Z,49.94
2022-08-04T23:10:24.662Z,50.53
2022-08-04T23:15:24.505Z,50.24
2022-08-04T23:20:32.403Z,50.76
2022-08-04T23:25:32.869Z,51.62
2022-08-04T23:30:30.302Z,51.84
2022-08-04T23:35:25.273Z,52.14
2022-08-04T23:40:32.398Z,52.24
2022-08-04T23:46:04.609Z,52.44
2022-08-04T23:50:25.145Z,53.16
2022-08-04T23:55:24.034Z,53.16
